createdAt,value
2023-12-22T00:00:06.484Z,75.10
2023-12-22T00:02:34.605Z,75.02
2023-12-22T00:05:02.660Z,74.60
2023-12-22T00:07:30.737Z,74.79
2023-12-22T00:09:58.913Z,74.84
2023-12-22T00:12:31.251Z,74.83
2023-12-22T00:14:59.246Z,74.16
2023-12-22T00:17:29.716Z,74.55
2023-12-22T00:20:00.251Z,75.82
2023-12-22T00:22:28.367Z,76.02
2023-12-22T00:24:56.622Z,76.95
2023-12-22T00:27:24.601Z,77.38
2023-12-22T00:29:54.037Z,78.09
2023-12-22T00:32:22.051Z,78.34
2023-12-22T00:34:50.112Z,78.97
2023-12-22T00:37:18.233Z,78.55
2023-12-22T00:39:46.274Z,79.10
2023-12-22T00:42:14.299Z,78.58
2023-12-22T00:44:42.238Z,78.13
2023-12-22T00:47:11.560Z,78.22
2023-12-22T00:49:39.483Z,77.55
2023-12-22T00:52:07.764Z,78.02
2023-12-22T00:54:35.844Z,78.52
2023-12-22T00:57:03.816Z,78.78
2023-12-22T00:59:31.853Z,77.94
2023-12-22T01:01:59.806Z,77.66
2023-12-22T01:04:29.255Z,77.82
2023-12-22T01:06:57.275Z,78.00
2023-12-22T01:09:25.220Z,77.46
2023-12-22T01:11:53.340Z,78.46
2023-12-22T01:14:21.507Z,78.39
2023-12-22T01:16:49.694Z,78.17
2023-12-22T01:19:17.898Z,77.84
2023-12-22T01:21:50.117Z,77.69
2023-12-22T01:24:18.399Z,77.92
2023-12-22T01:26:46.365Z,77.51
2023-12-22T01:29:14.349Z,76.99
2023-12-22T01:31:42.526Z,77.13
2023-12-22T01:34:10.684Z,76.53
2023-12-22T01:36:38.667Z,76.48
2023-12-22T01:39:09.881Z,76.19
2023-12-22T01:41:38.013Z,76.17
2023-12-22T01:44:06.303Z,75.86
2023-12-22T01:46:38.319Z,74.87
2023-12-22T01:49:07.338Z,74.79
2023-12-22T01:51:40.927Z,74.05
2023-12-22T01:54:14.589Z,73.48
2023-12-22T01:56:42.744Z,72.76
2023-12-22T01:59:11.872Z,72.38
2023-12-22T02:01:40.829Z,72.05
2023-12-22T02:04:10.184Z,71.41
2023-12-22T02:06:38.324Z,70.82
2023-12-22T02:09:06.373Z,70.50
2023-12-22T02:11:41.043Z,71.28
2023-12-22T02:14:09.816Z,71.10
2023-12-22T02:16:44.945Z,71.17
2023-12-22T02:19:24.236Z,70.97
2023-12-22T02:22:08.953Z,70.78
2023-12-22T02:24:39.521Z,71.40
2023-12-22T02:27:16.880Z,71.69
2023-12-22T02:29:50.603Z,71.32
2023-12-22T02:32:24.886Z,70.98
2023-12-22T02:34:55.596Z,71.42
2023-12-22T02:37:26.111Z,70.88
2023-12-22T02:39:56.025Z,71.28
2023-12-22T02:42:31.159Z,71.33
2023-12-22T02:45:00.024Z,71.85
2023-12-22T02:47:29.312Z,71.31
2023-12-22T02:49:57.808Z,71.05
2023-12-22T02:52:26.163Z,70.92
2023-12-22T02:54:55.601Z,70.96
2023-12-22T02:57:23.924Z,71.37
2023-12-22T02:59:51.926Z,71.44
2023-12-22T03:02:19.863Z,71.11
2023-12-22T03:04:48.445Z,71.21
2023-12-22T03:07:17.167Z,70.65
2023-12-22T03:09:47.787Z,71.00
2023-12-22T03:12:17.195Z,70.66
2023-12-22T03:14:45.080Z,70.75
2023-12-22T03:17:13.220Z,70.49
2023-12-22T03:19:43.926Z,70.05
2023-12-22T03:22:11.997Z,70.30
2023-12-22T03:24:40.113Z,68.77
2023-12-22T03:27:08.225Z,68.85
2023-12-22T03:29:37.732Z,67.52
2023-12-22T03:32:06.463Z,67.79
2023-12-22T03:34:34.352Z,67.86
2023-12-22T03:37:02.599Z,68.23
2023-12-22T03:39:30.608Z,67.76
2023-12-22T03:42:01.342Z,67.66
2023-12-22T03:44:29.305Z,67.66
2023-12-22T03:46:58.685Z,68.39
2023-12-22T03:49:26.717Z,68.18
2023-12-22T03:51:54.738Z,67.97
2023-12-22T03:54:22.643Z,68.47
2023-12-22T03:56:50.575Z,68.02
2023-12-22T03:59:21.149Z,68.68
2023-12-22T04:01:54.277Z,71.21
2023-12-22T04:04:24.496Z,72.68
2023-12-22T04:06:52.690Z,75.00
2023-12-22T04:09:20.550Z,75.91
2023-12-22T04:11:48.452Z,76.99
2023-12-22T04:14:17.802Z,77.04
2023-12-22T04:16:45.764Z,78.09
2023-12-22T04:19:13.823Z,78.26
2023-12-22T04:21:43.279Z,78.54
2023-12-22T04:24:11.743Z,77.92
2023-12-22T04:26:39.722Z,78.29
2023-12-22T04:29:07.739Z,78.09
2023-12-22T04:31:35.739Z,77.07
2023-12-22T04:34:03.713Z,76.81
2023-12-22T04:36:31.724Z,76.43
2023-12-22T04:39:01.013Z,74.95
2023-12-22T04:41:29.136Z,75.05
2023-12-22T04:43:57.250Z,75.16
2023-12-22T04:46:25.338Z,74.44
2023-12-22T04:48:53.532Z,74.45
2023-12-22T04:51:22.373Z,73.83
2023-12-22T04:53:50.694Z,74.29
2023-12-22T04:56:20.058Z,74.38
2023-12-22T04:58:48.143Z,74.53
2023-12-22T05:01:16.221Z,74.06
2023-12-22T05:03:44.292Z,72.83
2023-12-22T05:06:12.365Z,72.84
2023-12-22T05:08:40.249Z,73.58
2023-12-22T05:11:08.283Z,72.63
2023-12-22T05:13:39.821Z,73.12
2023-12-22T05:16:08.151Z,73.40
2023-12-22T05:18:36.408Z,73.00
2023-12-22T05:21:05.176Z,73.05
2023-12-22T05:23:33.647Z,73.31
2023-12-22T05:26:01.652Z,72.92
2023-12-22T05:28:29.660Z,73.77
2023-12-22T05:31:01.609Z,72.95
2023-12-22T05:33:30.183Z,72.64
2023-12-22T05:35:58.264Z,72.81
2023-12-22T05:38:26.382Z,73.08
2023-12-22T05:40:54.349Z,73.75
2023-12-22T05:43:22.433Z,73.60
2023-12-22T05:45:50.493Z,74.23
2023-12-22T05:48:23.154Z,74.27
2023-12-22T05:50:53.734Z,73.12
2023-12-22T05:53:23.759Z,72.61
2023-12-22T05:55:53.950Z,72.76
2023-12-22T05:58:21.879Z,71.89
2023-12-22T06:00:49.968Z,71.60
2023-12-22T06:03:19.325Z,71.03
2023-12-22T06:05:48.444Z,70.68
2023-12-22T06:08:18.601Z,69.31
2023-12-22T06:10:46.858Z,70.04
2023-12-22T06:13:16.185Z,69.71
2023-12-22T06:15:44.250Z,69.12
2023-12-22T06:18:12.665Z,69.17
2023-12-22T06:20:42.151Z,69.61
2023-12-22T06:23:10.214Z,69.77
2023-12-22T06:25:38.381Z,69.15
2023-12-22T06:28:07.203Z,69.85
2023-12-22T06:30:35.337Z,68.91
2023-12-22T06:33:02.586Z,70.00
2023-12-22T06:35:30.697Z,68.83
2023-12-22T06:38:05.001Z,69.58
2023-12-22T06:40:33.389Z,68.65
2023-12-22T06:43:01.442Z,68.79
2023-12-22T06:45:29.519Z,69.20
2023-12-22T06:47:57.729Z,69.23
2023-12-22T06:50:26.025Z,68.97
2023-12-22T06:52:54.056Z,69.15
2023-12-22T06:55:23.705Z,69.14
2023-12-22T06:57:52.337Z,68.79
2023-12-22T07:00:20.964Z,68.58
2023-12-22T07:02:49.277Z,68.84
2023-12-22T07:05:37.930Z,68.33
2023-12-22T07:08:08.287Z,69.25
2023-12-22T07:10:37.876Z,69.50
2023-12-22T07:13:06.863Z,68.89
2023-12-22T07:15:35.128Z,69.19
2023-12-22T07:18:03.445Z,69.82
2023-12-22T07:20:33.742Z,70.39
2023-12-22T07:23:01.930Z,69.83
2023-12-22T07:25:31.078Z,70.19
2023-12-22T07:28:01.043Z,70.02
2023-12-22T07:30:29.252Z,70.64
2023-12-22T07:32:57.423Z,71.21
2023-12-22T07:35:25.700Z,70.52
2023-12-22T07:37:55.344Z,70.41
2023-12-22T07:40:24.886Z,70.34
2023-12-22T07:42:52.987Z,70.30
2023-12-22T07:45:24.480Z,70.46
2023-12-22T07:47:56.561Z,70.16
2023-12-22T07:50:25.338Z,70.18
2023-12-22T07:52:54.489Z,70.37
2023-12-22T07:55:22.900Z,70.74
2023-12-22T07:58:01.691Z,70.34
2023-12-22T08:00:31.724Z,72.12
2023-12-22T08:03:04.395Z,72.90
2023-12-22T08:05:34.536Z,73.33
2023-12-22T08:08:02.658Z,74.50
2023-12-22T08:10:33.361Z,74.90
2023-12-22T08:13:01.785Z,76.07
2023-12-22T08:15:36.972Z,76.00
2023-12-22T08:18:06.621Z,76.92
2023-12-22T08:20:38.255Z,77.69
2023-12-22T08:23:11.957Z,77.35
2023-12-22T08:25:42.920Z,77.98
2023-12-22T08:28:13.917Z,77.82
2023-12-22T08:30:44.425Z,77.85
2023-12-22T08:33:14.863Z,78.89
2023-12-22T08:35:43.735Z,78.48
2023-12-22T08:38:14.630Z,78.58
2023-12-22T08:40:43.494Z,79.42
2023-12-22T08:43:11.817Z,78.77
2023-12-22T08:45:40.253Z,79.21
2023-12-22T08:48:10.436Z,79.53
2023-12-22T08:50:38.740Z,79.03
2023-12-22T08:53:06.989Z,78.19
2023-12-22T08:55:35.572Z,78.46
2023-12-22T08:58:06.456Z,77.41
2023-12-22T09:00:34.957Z,76.89
2023-12-22T09:03:03.962Z,77.01
2023-12-22T09:05:33.937Z,76.58
2023-12-22T09:08:05.488Z,76.34
2023-12-22T09:10:36.656Z,75.08
2023-12-22T09:14:02.506Z,75.58
2023-12-22T09:17:29.401Z,74.34
2023-12-22T09:20:04.776Z,74.00
2023-12-22T09:22:34.543Z,74.33
2023-12-22T09:25:39.364Z,72.51
2023-12-22T09:28:45.985Z,72.57
2023-12-22T09:31:14.880Z,73.21
2023-12-22T09:33:45.599Z,72.33
2023-12-22T09:36:14.233Z,72.39
2023-12-22T09:39:58.692Z,71.14
2023-12-22T09:43:10.514Z,70.69
2023-12-22T09:45:47.727Z,70.98
2023-12-22T09:48:19.023Z,70.79
2023-12-22T09:50:47.151Z,70.21
2023-12-22T09:53:16.511Z,70.85
2023-12-22T09:55:48.048Z,70.12
2023-12-22T09:58:18.567Z,70.69
2023-12-22T10:00:47.556Z,69.83
2023-12-22T10:03:18.846Z,69.54
2023-12-22T10:05:47.886Z,69.49
2023-12-22T10:08:17.940Z,69.46
2023-12-22T10:10:49.359Z,69.76
2023-12-22T10:13:19.056Z,69.53
2023-12-22T10:15:48.972Z,69.59
2023-12-22T10:18:17.984Z,69.92
2023-12-22T10:20:48.180Z,68.13
2023-12-22T10:23:16.580Z,69.06
2023-12-22T10:25:44.618Z,68.08
2023-12-22T10:28:16.841Z,67.81
2023-12-22T10:30:49.804Z,68.34
2023-12-22T10:33:18.095Z,67.61
2023-12-22T10:35:46.548Z,68.04
2023-12-22T10:38:15.027Z,67.69
2023-12-22T10:40:43.497Z,68.59
2023-12-22T10:43:11.603Z,68.65
2023-12-22T10:45:40.692Z,68.59
2023-12-22T10:48:10.861Z,68.85
2023-12-22T10:50:42.261Z,69.43
2023-12-22T10:53:15.265Z,68.86
2023-12-22T10:55:48.646Z,69.38
2023-12-22T10:58:17.014Z,70.16
2023-12-22T11:00:48.033Z,69.44
2023-12-22T11:03:20.139Z,69.80
2023-12-22T11:05:50.465Z,70.27
2023-12-22T11:08:21.885Z,70.78
2023-12-22T11:10:56.718Z,71.32
2023-12-22T11:13:25.885Z,71.62
2023-12-22T11:15:55.796Z,71.17
2023-12-22T11:18:26.979Z,71.74
2023-12-22T11:20:56.338Z,72.13
2023-12-22T11:23:26.004Z,72.69
2023-12-22T11:25:55.718Z,73.14
2023-12-22T11:28:26.094Z,73.45
2023-12-22T11:30:58.520Z,73.73
2023-12-22T11:33:31.645Z,74.34
2023-12-22T11:36:01.588Z,73.82
2023-12-22T11:38:29.558Z,74.17
2023-12-22T11:40:57.894Z,74.32
2023-12-22T11:43:26.470Z,74.02
2023-12-22T11:45:54.758Z,74.50
2023-12-22T11:48:23.328Z,73.69
2023-12-22T11:50:53.454Z,74.00
2023-12-22T11:53:23.206Z,74.53
2023-12-22T11:56:02.169Z,74.98
2023-12-22T11:58:37.782Z,74.95
2023-12-22T12:01:09.209Z,75.60
2023-12-22T12:03:43.451Z,75.68
2023-12-22T12:06:19.659Z,74.83
2023-12-22T12:08:48.177Z,74.87
2023-12-22T12:11:16.239Z,75.14
2023-12-22T12:13:46.885Z,75.21
2023-12-22T12:16:15.591Z,75.50
2023-12-22T12:18:44.669Z,74.93
2023-12-22T12:21:13.514Z,75.00
2023-12-22T12:23:43.442Z,74.99
2023-12-22T12:26:13.604Z,74.74
2023-12-22T12:28:47.611Z,75.05
2023-12-22T12:31:15.718Z,74.92
2023-12-22T12:33:44.552Z,75.46
2023-12-22T12:36:14.249Z,75.25
2023-12-22T12:38:55.479Z,74.56
2023-12-22T12:41:31.939Z,74.88
2023-12-22T12:44:01.269Z,75.02
2023-12-22T12:46:37.879Z,75.12
2023-12-22T12:49:10.825Z,74.96
2023-12-22T12:51:40.051Z,75.34
2023-12-22T12:54:10.286Z,74.89
2023-12-22T12:56:40.582Z,74.80
2023-12-22T12:59:12.197Z,74.89
2023-12-22T13:01:42.603Z,75.75
2023-12-22T13:04:11.298Z,74.98
2023-12-22T13:06:45.956Z,75.69
2023-12-22T13:09:16.997Z,76.03
2023-12-22T13:11:47.282Z,75.85
2023-12-22T13:14:24.490Z,75.80
2023-12-22T13:16:55.179Z,75.33
2023-12-22T13:19:26.923Z,75.34
2023-12-22T13:21:56.039Z,74.95
2023-12-22T13:24:27.070Z,74.86
2023-12-22T13:27:02.331Z,74.96
2023-12-22T13:29:30.565Z,75.15
2023-12-22T13:31:59.260Z,74.75
2023-12-22T13:34:27.648Z,74.55
2023-12-22T13:36:59.388Z,74.83
2023-12-22T13:39:30.536Z,74.89
2023-12-22T13:41:58.541Z,74.37
2023-12-22T13:44:29.077Z,74.51
2023-12-22T13:47:00.606Z,74.70
2023-12-22T13:49:35.766Z,74.77
2023-12-22T13:52:07.585Z,73.94
2023-12-22T13:54:39.124Z,73.86
2023-12-22T13:57:07.021Z,73.82
2023-12-22T13:59:35.225Z,73.55
2023-12-22T14:02:05.698Z,73.79
2023-12-22T14:04:34.789Z,73.91
2023-12-22T14:07:02.799Z,73.56
2023-12-22T14:09:34.083Z,74.06
2023-12-22T14:12:06.077Z,74.33
2023-12-22T14:14:38.649Z,74.21
2023-12-22T14:17:06.689Z,73.75
2023-12-22T14:19:34.943Z,73.90
2023-12-22T14:22:02.968Z,73.55
2023-12-22T14:24:30.860Z,73.52
2023-12-22T14:26:59.083Z,73.63
2023-12-22T14:29:28.365Z,73.32
2023-12-22T14:31:58.452Z,73.24
2023-12-22T14:34:27.001Z,73.35
2023-12-22T14:36:54.941Z,73.32
2023-12-22T14:39:25.636Z,73.35
2023-12-22T14:41:53.473Z,73.37
2023-12-22T14:44:21.442Z,73.58
2023-12-22T14:46:50.672Z,73.66
2023-12-22T14:49:19.231Z,73.81
2023-12-22T14:51:52.921Z,73.53
2023-12-22T14:54:21.905Z,73.68
2023-12-22T14:56:50.742Z,73.59
2023-12-22T14:59:19.075Z,73.40
2023-12-22T15:01:49.825Z,73.57
2023-12-22T15:04:20.020Z,73.40
2023-12-22T15:06:52.316Z,73.61
2023-12-22T15:09:28.432Z,73.51
2023-12-22T15:11:57.045Z,73.36
2023-12-22T15:14:25.520Z,73.56
2023-12-22T15:17:15.140Z,73.71
2023-12-22T15:19:45.673Z,73.96
2023-12-22T15:22:14.479Z,74.34
2023-12-22T15:24:44.718Z,74.35
2023-12-22T15:27:13.257Z,74.19
2023-12-22T15:29:41.567Z,74.15
2023-12-22T15:32:09.539Z,74.54
2023-12-22T15:34:37.669Z,74.53
2023-12-22T15:37:07.026Z,74.35
2023-12-22T15:39:34.933Z,73.88
2023-12-22T15:42:02.946Z,74.14
2023-12-22T15:44:31.125Z,74.48
2023-12-22T15:46:59.358Z,74.61
2023-12-22T15:49:27.745Z,74.43
2023-12-22T15:51:57.122Z,73.85
2023-12-22T15:54:26.560Z,73.22
2023-12-22T15:56:54.552Z,73.09
2023-12-22T15:59:26.882Z,72.71
2023-12-22T16:01:57.278Z,72.58
2023-12-22T16:04:25.303Z,72.83
2023-12-22T16:06:53.488Z,72.36
2023-12-22T16:09:22.043Z,72.19
2023-12-22T16:11:51.338Z,72.16
2023-12-22T16:14:19.468Z,72.35
2023-12-22T16:16:47.506Z,72.45
2023-12-22T16:19:15.603Z,72.00
2023-12-22T16:21:45.418Z,71.98
2023-12-22T16:24:13.696Z,72.23
2023-12-22T16:26:41.800Z,71.87
2023-12-22T16:29:11.154Z,71.85
2023-12-22T16:31:40.629Z,72.14
2023-12-22T16:34:08.867Z,72.07
2023-12-22T16:36:36.981Z,72.37
2023-12-22T16:39:06.146Z,72.19
2023-12-22T16:41:38.982Z,72.37
2023-12-22T16:44:07.015Z,72.63
2023-12-22T16:46:36.319Z,72.37
2023-12-22T16:49:05.512Z,72.03
2023-12-22T16:51:33.584Z,71.91
2023-12-22T16:54:03.790Z,71.82
2023-12-22T16:56:32.115Z,72.19
2023-12-22T16:59:00.538Z,72.29
2023-12-22T17:01:38.917Z,72.31
2023-12-22T17:04:12.697Z,72.62
2023-12-22T17:06:48.442Z,72.08
2023-12-22T17:09:19.783Z,71.90
2023-12-22T17:11:47.837Z,72.35
2023-12-22T17:14:15.694Z,71.86
2023-12-22T17:16:43.940Z,72.15
2023-12-22T17:19:14.025Z,71.62
2023-12-22T17:21:42.988Z,72.10
2023-12-22T17:24:11.634Z,72.05
2023-12-22T17:26:39.784Z,72.15
2023-12-22T17:29:10.366Z,72.05
2023-12-22T17:31:38.524Z,71.94
2023-12-22T17:34:07.603Z,72.00
2023-12-22T17:36:36.906Z,72.03
2023-12-22T17:39:05.072Z,71.84
2023-12-22T17:41:33.031Z,71.94
2023-12-22T17:44:01.101Z,71.97
2023-12-22T17:46:31.390Z,71.85
2023-12-22T17:48:59.445Z,71.76
2023-12-22T17:51:27.615Z,71.82
2023-12-22T17:53:56.910Z,72.09
2023-12-22T17:56:24.869Z,72.17
2023-12-22T17:58:54.891Z,71.79
2023-12-22T18:01:23.654Z,72.27
2023-12-22T18:03:55.297Z,72.10
2023-12-22T18:06:23.949Z,72.40
2023-12-22T18:08:55.840Z,72.34
2023-12-22T18:11:23.800Z,72.30
2023-12-22T18:13:54.105Z,72.17
2023-12-22T18:16:22.141Z,72.20
2023-12-22T18:18:50.260Z,71.78
2023-12-22T18:21:18.664Z,71.76
2023-12-22T18:23:46.945Z,71.58
2023-12-22T18:26:16.372Z,71.70
2023-12-22T18:28:44.412Z,72.06
2023-12-22T18:31:14.713Z,71.75
2023-12-22T18:33:43.614Z,71.63
2023-12-22T18:36:11.742Z,71.93
2023-12-22T18:38:41.725Z,72.12
2023-12-22T18:41:10.662Z,72.08
2023-12-22T18:43:40.441Z,72.20
2023-12-22T18:46:08.554Z,72.10
2023-12-22T18:48:37.125Z,71.81
2023-12-22T18:51:05.703Z,71.93
2023-12-22T18:53:33.687Z,71.96
2023-12-22T18:56:02.007Z,72.03
2023-12-22T18:58:30.377Z,71.47
2023-12-22T19:00:59.790Z,71.48
2023-12-22T19:03:27.892Z,71.93
2023-12-22T19:05:56.066Z,71.83
2023-12-22T19:08:24.303Z,71.58
2023-12-22T19:10:52.445Z,71.23
2023-12-22T19:13:19.490Z,71.54
2023-12-22T19:15:48.093Z,71.49
2023-12-22T19:18:17.871Z,71.46
2023-12-22T19:20:46.267Z,71.77
2023-12-22T19:23:14.647Z,71.87
2023-12-22T19:25:42.805Z,71.65
2023-12-22T19:28:11.008Z,72.20
2023-12-22T19:30:41.519Z,72.26
2023-12-22T19:33:10.680Z,72.11
2023-12-22T19:35:40.111Z,72.11
2023-12-22T19:38:08.442Z,72.08
2023-12-22T19:40:36.883Z,71.94
2023-12-22T19:43:05.235Z,71.73
2023-12-22T19:45:33.928Z,72.00
2023-12-22T19:48:02.201Z,71.53
2023-12-22T19:50:30.484Z,71.26
2023-12-22T19:53:01.173Z,71.35
2023-12-22T19:55:29.238Z,70.67
2023-12-22T19:57:57.419Z,71.21
2023-12-22T20:00:25.711Z,70.82
2023-12-22T20:02:53.905Z,70.89
2023-12-22T20:05:24.546Z,71.26
2023-12-22T20:07:53.118Z,70.97
2023-12-22T20:10:22.789Z,70.89
2023-12-22T20:12:51.165Z,71.11
2023-12-22T20:15:19.894Z,70.58
2023-12-22T20:17:48.503Z,70.88
2023-12-22T20:20:18.527Z,70.73
2023-12-22T20:22:46.784Z,70.62
2023-12-22T20:25:15.174Z,70.50
2023-12-22T20:27:45.509Z,71.01
2023-12-22T20:30:14.203Z,70.92
2023-12-22T20:32:42.913Z,71.37
2023-12-22T20:35:11.136Z,71.22
2023-12-22T20:37:39.346Z,71.63
2023-12-22T20:40:09.169Z,71.53
2023-12-22T20:42:37.158Z,71.97
2023-12-22T20:45:07.874Z,71.68
2023-12-22T20:47:36.541Z,72.33
2023-12-22T20:50:07.790Z,71.67
2023-12-22T20:52:36.529Z,71.85
2023-12-22T20:55:05.022Z,71.91
2023-12-22T20:57:33.513Z,71.68
2023-12-22T21:00:01.949Z,71.90
2023-12-22T21:02:33.792Z,71.67
2023-12-22T21:05:02.594Z,72.21
2023-12-22T21:07:33.262Z,71.93
2023-12-22T21:10:01.854Z,71.77
2023-12-22T21:12:31.665Z,72.12
2023-12-22T21:14:59.625Z,72.36
2023-12-22T21:17:27.905Z,72.17
2023-12-22T21:19:57.433Z,71.36
2023-12-22T21:22:25.473Z,71.58
2023-12-22T21:24:53.446Z,71.69
2023-12-22T21:27:21.598Z,72.28
2023-12-22T21:29:49.716Z,72.70
2023-12-22T21:32:22.065Z,72.58
2023-12-22T21:34:50.486Z,72.38
2023-12-22T21:37:21.052Z,73.04
2023-12-22T21:39:49.014Z,72.18
2023-12-22T21:42:16.994Z,72.40
2023-12-22T21:44:47.166Z,71.97
2023-12-22T21:47:15.602Z,72.34
2023-12-22T21:49:44.387Z,72.29
2023-12-22T21:52:12.395Z,71.79
2023-12-22T21:54:42.611Z,71.68
2023-12-22T21:57:11.524Z,71.45
2023-12-22T21:59:39.854Z,71.70
2023-12-22T22:02:08.503Z,71.24
2023-12-22T22:04:36.639Z,71.16
2023-12-22T22:07:04.730Z,71.09
2023-12-22T22:09:35.120Z,72.23
2023-12-22T22:12:04.919Z,72.29
2023-12-22T22:14:32.998Z,72.01
2023-12-22T22:17:03.370Z,71.63
2023-12-22T22:19:34.156Z,72.06
2023-12-22T22:22:03.413Z,72.17
2023-12-22T22:24:33.757Z,71.99
2023-12-22T22:27:01.800Z,71.80
2023-12-22T22:29:31.132Z,70.85
2023-12-22T22:31:59.184Z,71.34
2023-12-22T22:34:27.211Z,71.12
2023-12-22T22:36:55.236Z,70.85
2023-12-22T22:39:23.452Z,70.82
2023-12-22T22:41:51.510Z,71.29
2023-12-22T22:44:20.073Z,70.45
2023-12-22T22:46:49.602Z,71.04
2023-12-22T22:49:17.662Z,70.45
2023-12-22T22:51:45.650Z,70.04
2023-12-22T22:54:13.742Z,70.35
2023-12-22T22:56:43.356Z,70.07
2023-12-22T22:59:11.730Z,70.53
2023-12-22T23:01:39.848Z,70.28
2023-12-22T23:04:09.311Z,70.22
2023-12-22T23:06:38.001Z,70.51
2023-12-22T23:09:06.108Z,70.77
2023-12-22T23:11:34.098Z,70.65
2023-12-22T23:14:02.116Z,70.18
2023-12-22T23:16:30.154Z,70.79
2023-12-22T23:18:58.424Z,70.92
2023-12-22T23:21:27.869Z,70.96
2023-12-22T23:23:56.503Z,70.62
2023-12-22T23:26:24.568Z,70.59
2023-12-22T23:28:52.850Z,70.73
2023-12-22T23:31:20.854Z,70.42
2023-12-22T23:33:48.997Z,70.50
2023-12-22T23:36:25.373Z,70.43
2023-12-22T23:38:57.226Z,71.46
2023-12-22T23:41:25.453Z,71.10
2023-12-22T23:43:55.918Z,71.39
2023-12-22T23:46:23.953Z,70.78
2023-12-22T23:48:52.024Z,70.08
2023-12-22T23:51:20.262Z,70.36
2023-12-22T23:53:48.364Z,70.46
2023-12-22T23:56:17.949Z,70.48
2023-12-22T23:58:48.521Z,70.61
